createdAt,value
2023-01-13T00:00:31.050Z,17.75
2023-01-13T00:03:33.196Z,17.75
2023-01-13T00:06:35.284Z,17.69
2023-01-13T00:09:37.508Z,17.69
2023-01-13T00:12:41.117Z,17.75
2023-01-13T00:15:43.615Z,17.69
2023-01-13T00:18:47.309Z,17.69
2023-01-13T00:21:49.495Z,17.69
2023-01-13T00:24:51.608Z,17.69
2023-01-13T00:27:54.115Z,17.69
2023-01-13T00:30:58.466Z,17.69
2023-01-13T00:34:01.575Z,17.69
2023-01-13T00:37:03.763Z,17.69
2023-01-13T00:40:06.559Z,17.63
2023-01-13T00:43:24.498Z,17.63
2023-01-13T00:46:26.725Z,17.63
2023-01-13T00:49:28.868Z,17.63
2023-01-13T00:52:32.847Z,17.63
2023-01-13T00:55:35.086Z,17.63
2023-01-13T00:58:37.444Z,17.63
2023-01-13T01:01:40.536Z,17.63
2023-01-13T01:04:42.787Z,17.56
2023-01-13T01:07:44.890Z,17.56
2023-01-13T01:10:47.033Z,17.56
2023-01-13T01:13:52.453Z,17.56
2023-01-13T01:16:54.791Z,17.56
2023-01-13T01:19:57.662Z,17.56
2023-01-13T01:22:59.870Z,17.56
2023-01-13T01:26:03.952Z,17.56
2023-01-13T01:29:06.114Z,17.56
2023-01-13T01:32:08.238Z,17.56
2023-01-13T01:35:10.480Z,17.50
2023-01-13T01:38:12.689Z,17.50
2023-01-13T01:41:17.308Z,17.50
2023-01-13T01:44:41.367Z,17.50
2023-01-13T01:47:43.973Z,17.50
2023-01-13T01:50:46.174Z,17.50
2023-01-13T01:53:48.675Z,17.50
2023-01-13T01:56:51.351Z,17.44
2023-01-13T01:59:53.785Z,17.44
2023-01-13T02:02:57.213Z,17.50
2023-01-13T02:05:59.343Z,17.44
2023-01-13T02:09:01.473Z,17.50
2023-01-13T02:12:22.108Z,17.44
2023-01-13T02:16:11.109Z,17.44
2023-01-13T02:19:23.037Z,17.44
2023-01-13T02:22:57.126Z,17.44
2023-01-13T02:26:33.375Z,17.44
2023-01-13T02:29:59.951Z,17.44
2023-01-13T02:33:27.095Z,17.38
2023-01-13T02:36:55.699Z,17.44
2023-01-13T02:40:10.704Z,17.38
2023-01-13T02:43:51.029Z,17.44
2023-01-13T02:47:19.142Z,17.38
2023-01-13T02:50:27.103Z,17.38
2023-01-13T02:53:44.898Z,17.38
2023-01-13T02:56:51.056Z,17.31
2023-01-13T02:59:55.597Z,17.31
2023-01-13T03:02:58.050Z,17.31
2023-01-13T03:06:26.426Z,17.31
2023-01-13T03:09:39.412Z,17.31
2023-01-13T03:12:59.827Z,17.31
2023-01-13T03:16:09.261Z,17.31
2023-01-13T03:19:30.420Z,17.25
2023-01-13T03:22:59.465Z,17.31
2023-01-13T03:26:33.672Z,17.31
2023-01-13T03:29:40.234Z,17.25
2023-01-13T03:33:04.430Z,17.31
2023-01-13T03:36:10.234Z,17.25
2023-01-13T03:39:17.581Z,17.25
2023-01-13T03:42:24.837Z,17.25
2023-01-13T03:45:27.659Z,17.25
2023-01-13T03:48:32.769Z,17.25
2023-01-13T03:51:37.791Z,17.25
2023-01-13T03:54:49.366Z,17.25
2023-01-13T03:58:24.173Z,17.25
2023-01-13T04:01:33.303Z,17.19
2023-01-13T04:04:47.295Z,17.19
2023-01-13T04:08:06.588Z,17.19
2023-01-13T04:11:18.554Z,17.19
2023-01-13T04:14:21.763Z,17.19
2023-01-13T04:17:24.608Z,17.13
2023-01-13T04:20:26.613Z,17.13
2023-01-13T04:23:29.236Z,17.19
2023-01-13T04:26:31.312Z,17.19
2023-01-13T04:29:33.432Z,17.19
2023-01-13T04:32:35.527Z,17.13
2023-01-13T04:35:38.085Z,17.19
2023-01-13T04:38:40.140Z,17.50
2023-01-13T04:42:02.386Z,17.63
2023-01-13T04:45:04.803Z,17.69
2023-01-13T04:48:07.125Z,17.81
2023-01-13T04:51:09.215Z,17.88
2023-01-13T04:54:11.746Z,18.00
2023-01-13T04:57:13.825Z,18.13
2023-01-13T05:00:17.494Z,18.13
2023-01-13T05:03:19.584Z,18.06
2023-01-13T05:06:21.713Z,18.13
2023-01-13T05:09:23.865Z,18.19
2023-01-13T05:12:44.531Z,18.13
2023-01-13T05:16:06.816Z,18.13
2023-01-13T05:19:09.103Z,18.19
2023-01-13T05:22:30.049Z,18.13
2023-01-13T05:25:32.982Z,18.19
2023-01-13T05:28:35.313Z,18.25
2023-01-13T05:31:37.362Z,18.38
2023-01-13T05:34:39.554Z,18.44
2023-01-13T05:37:42.873Z,18.44
2023-01-13T05:41:03.867Z,18.38
2023-01-13T05:44:05.992Z,18.44
2023-01-13T05:47:08.008Z,18.38
2023-01-13T05:50:10.976Z,18.38
2023-01-13T05:53:13.473Z,18.38
2023-01-13T05:56:17.345Z,18.31
2023-01-13T05:59:19.379Z,18.31
2023-01-13T06:02:21.597Z,18.31
2023-01-13T06:05:23.718Z,18.25
2023-01-13T06:08:26.472Z,18.25
2023-01-13T06:11:28.591Z,18.38
2023-01-13T06:14:51.105Z,18.69
2023-01-13T06:17:53.796Z,18.88
2023-01-13T06:20:56.413Z,19.00
2023-01-13T06:23:59.824Z,18.88
2023-01-13T06:27:01.951Z,18.94
2023-01-13T06:30:04.707Z,18.88
2023-01-13T06:33:11.726Z,18.88
2023-01-13T06:36:23.990Z,18.88
2023-01-13T06:39:30.955Z,18.94
2023-01-13T06:42:54.526Z,18.88
2023-01-13T06:45:57.097Z,18.94
2023-01-13T06:48:59.306Z,18.94
2023-01-13T06:52:01.444Z,18.88
2023-01-13T06:55:04.115Z,18.81
2023-01-13T06:58:06.260Z,18.81
2023-01-13T07:01:08.463Z,18.81
2023-01-13T07:04:10.923Z,18.81
2023-01-13T07:07:13.765Z,18.75
2023-01-13T07:10:22.236Z,18.81
2023-01-13T07:13:43.336Z,18.94
2023-01-13T07:16:45.427Z,18.94
2023-01-13T07:19:47.506Z,18.94
2023-01-13T07:22:54.804Z,18.94
2023-01-13T07:25:57.939Z,18.88
2023-01-13T07:29:00.917Z,18.88
2023-01-13T07:32:03.052Z,18.88
2023-01-13T07:35:05.764Z,18.94
2023-01-13T07:38:08.410Z,19.00
2023-01-13T07:41:32.753Z,19.00
2023-01-13T07:44:34.880Z,19.00
2023-01-13T07:47:36.915Z,19.00
2023-01-13T07:50:39.194Z,19.00
2023-01-13T07:53:41.420Z,19.13
2023-01-13T07:56:43.537Z,19.19
2023-01-13T07:59:45.621Z,19.13
2023-01-13T08:02:47.755Z,19.13
2023-01-13T08:05:50.290Z,19.13
2023-01-13T08:08:52.662Z,19.19
2023-01-13T08:12:13.892Z,19.38
2023-01-13T08:15:16.374Z,19.44
2023-01-13T08:18:22.347Z,19.44
2023-01-13T08:21:24.662Z,19.44
2023-01-13T08:24:26.726Z,19.50
2023-01-13T08:27:28.822Z,19.56
2023-01-13T08:30:31.050Z,19.63
2023-01-13T08:33:33.861Z,19.69
2023-01-13T08:36:35.955Z,19.63
2023-01-13T08:39:38.244Z,19.63
2023-01-13T08:42:40.392Z,19.63
2023-01-13T08:45:42.582Z,19.75
2023-01-13T08:48:44.857Z,19.81
2023-01-13T08:51:47.077Z,19.94
2023-01-13T08:54:49.196Z,19.88
2023-01-13T08:57:52.109Z,19.81
2023-01-13T09:00:55.171Z,19.88
2023-01-13T09:03:57.495Z,19.88
2023-01-13T09:06:59.740Z,20.00
2023-01-13T09:10:02.579Z,20.13
2023-01-13T09:13:13.914Z,20.19
2023-01-13T09:16:16.249Z,20.25
2023-01-13T09:19:18.703Z,20.13
2023-01-13T09:22:21.041Z,20.19
2023-01-13T09:25:23.240Z,20.19
2023-01-13T09:28:25.482Z,20.19
2023-01-13T09:31:28.642Z,20.19
2023-01-13T09:34:49.446Z,20.38
2023-01-13T09:37:51.523Z,20.56
2023-01-13T09:40:54.441Z,20.63
2023-01-13T09:43:59.315Z,20.56
2023-01-13T09:47:06.808Z,20.44
2023-01-13T09:50:20.796Z,20.44
2023-01-13T09:53:28.698Z,20.50
2023-01-13T09:56:30.770Z,20.69
2023-01-13T09:59:36.453Z,20.69
2023-01-13T10:03:01.792Z,20.69
2023-01-13T10:06:12.865Z,20.56
2023-01-13T10:09:20.834Z,20.50
2023-01-13T10:12:44.566Z,20.69
2023-01-13T10:16:12.235Z,20.81
2023-01-13T10:19:30.908Z,20.81
2023-01-13T10:22:58.054Z,20.75
2023-01-13T10:26:29.218Z,20.69
2023-01-13T10:29:33.062Z,20.63
2023-01-13T10:32:35.053Z,20.75
2023-01-13T10:35:59.583Z,20.88
2023-01-13T10:39:14.822Z,20.88
2023-01-13T10:42:19.128Z,20.94
2023-01-13T10:45:25.453Z,20.88
2023-01-13T10:48:34.323Z,20.81
2023-01-13T10:51:39.399Z,20.75
2023-01-13T10:54:52.194Z,20.69
2023-01-13T10:57:54.375Z,20.69
2023-01-13T11:01:02.113Z,20.69
2023-01-13T11:04:33.410Z,20.63
2023-01-13T11:08:01.958Z,20.56
2023-01-13T11:11:23.381Z,20.56
2023-01-13T11:14:44.141Z,20.50
2023-01-13T11:17:47.450Z,20.50
2023-01-13T11:20:51.630Z,20.44
2023-01-13T11:24:37.278Z,20.38
2023-01-13T11:27:52.432Z,20.31
2023-01-13T11:31:00.749Z,20.25
2023-01-13T11:34:45.400Z,20.38
2023-01-13T11:38:01.945Z,20.63
2023-01-13T11:41:38.690Z,20.75
2023-01-13T11:45:00.531Z,20.88
2023-01-13T11:48:04.326Z,20.81
2023-01-13T11:51:16.330Z,20.63
2023-01-13T11:54:53.153Z,20.50
2023-01-13T11:58:38.809Z,20.63
2023-01-13T12:02:16.083Z,20.63
2023-01-13T12:05:18.086Z,20.56
2023-01-13T12:08:31.030Z,20.56
2023-01-13T12:12:04.794Z,20.44
2023-01-13T12:15:24.716Z,20.38
2023-01-13T12:18:32.840Z,20.31
2023-01-13T12:21:54.100Z,20.31
2023-01-13T12:25:15.071Z,20.25
2023-01-13T12:28:24.771Z,20.25
2023-01-13T12:31:28.199Z,20.19
2023-01-13T12:34:48.411Z,20.19
2023-01-13T12:38:24.055Z,20.13
2023-01-13T12:41:34.800Z,20.06
2023-01-13T12:44:36.973Z,20.06
2023-01-13T12:47:43.978Z,20.06
2023-01-13T12:51:00.585Z,20.06
2023-01-13T12:54:23.538Z,20.06
2023-01-13T12:57:27.008Z,20.06
2023-01-13T13:00:41.254Z,20.13
2023-01-13T13:04:13.081Z,20.19
2023-01-13T13:07:29.973Z,20.19
2023-01-13T13:10:38.645Z,20.19
2023-01-13T13:13:48.327Z,20.25
2023-01-13T13:16:52.615Z,20.25
2023-01-13T13:19:56.327Z,20.25
2023-01-13T13:22:58.423Z,20.25
2023-01-13T13:26:21.676Z,20.31
2023-01-13T13:29:42.654Z,20.63
2023-01-13T13:33:39.522Z,20.44
2023-01-13T13:37:12.444Z,20.31
2023-01-13T13:40:37.540Z,20.19
2023-01-13T13:47:21.899Z,20.44
2023-01-13T13:50:24.283Z,20.63
2023-01-13T13:53:32.842Z,20.81
2023-01-13T13:56:43.919Z,20.88
2023-01-13T13:59:50.181Z,20.81
2023-01-13T14:03:00.538Z,20.50
2023-01-13T14:06:05.482Z,20.38
2023-01-13T14:09:17.978Z,20.25
2023-01-13T14:12:23.207Z,20.25
2023-01-13T14:15:34.505Z,20.19
2023-01-13T14:18:47.789Z,20.06
2023-01-13T14:21:49.946Z,20.19
2023-01-13T14:25:02.085Z,20.13
2023-01-13T14:28:29.005Z,20.00
2023-01-13T14:31:32.252Z,19.94
2023-01-13T14:34:41.067Z,19.94
2023-01-13T14:37:51.802Z,19.81
2023-01-13T14:41:17.131Z,19.81
2023-01-13T14:44:33.369Z,19.75
2023-01-13T14:47:35.461Z,19.69
2023-01-13T14:50:44.946Z,19.75
2023-01-13T14:53:59.931Z,19.81
2023-01-13T14:57:19.151Z,19.75
2023-01-13T15:00:27.254Z,19.69
2023-01-13T15:03:42.317Z,19.69
2023-01-13T15:06:58.746Z,19.69
2023-01-13T15:10:02.694Z,19.63
2023-01-13T15:13:06.990Z,19.63
2023-01-13T15:16:26.163Z,19.56
2023-01-13T15:19:30.885Z,19.56
2023-01-13T15:22:32.886Z,19.56
2023-01-13T15:25:42.098Z,19.56
2023-01-13T15:28:44.236Z,19.56
2023-01-13T15:31:46.216Z,19.56
2023-01-13T15:34:48.787Z,19.56
2023-01-13T15:37:50.991Z,19.50
2023-01-13T15:40:53.413Z,19.50
2023-01-13T15:44:24.569Z,19.44
2023-01-13T15:47:27.691Z,19.44
2023-01-13T15:50:29.685Z,19.44
2023-01-13T15:53:32.623Z,19.38
2023-01-13T15:56:36.539Z,19.44
2023-01-13T15:59:38.750Z,19.38
2023-01-13T16:02:40.942Z,19.38
2023-01-13T16:05:44.251Z,19.38
2023-01-13T16:08:46.562Z,19.38
2023-01-13T16:11:48.561Z,19.31
2023-01-13T16:14:50.579Z,19.31
2023-01-13T16:18:00.995Z,19.31
2023-01-13T16:21:03.084Z,19.31
2023-01-13T16:24:05.237Z,19.31
2023-01-13T16:27:16.977Z,19.25
2023-01-13T16:30:25.067Z,19.19
2023-01-13T16:33:27.101Z,19.19
2023-01-13T16:36:33.620Z,19.13
2023-01-13T16:39:35.670Z,19.13
2023-01-13T16:42:37.727Z,19.13
2023-01-13T16:45:41.211Z,19.06
2023-01-13T16:48:43.596Z,19.06
2023-01-13T16:51:45.856Z,19.06
2023-01-13T16:54:47.928Z,19.00
2023-01-13T16:57:50.001Z,19.00
2023-01-13T17:00:52.878Z,18.94
2023-01-13T17:03:55.837Z,18.94
2023-01-13T17:07:04.116Z,18.88
2023-01-13T17:10:06.581Z,18.88
2023-01-13T17:13:16.051Z,18.94
2023-01-13T17:16:24.324Z,18.81
2023-01-13T17:19:26.709Z,18.88
2023-01-13T17:22:30.690Z,18.88
2023-01-13T17:25:32.708Z,18.88
2023-01-13T17:28:34.934Z,18.88
2023-01-13T17:31:37.099Z,18.81
2023-01-13T17:34:40.081Z,18.81
2023-01-13T17:37:42.149Z,18.81
2023-01-13T17:40:44.212Z,18.75
2023-01-13T17:43:46.380Z,18.75
2023-01-13T17:46:48.900Z,18.75
2023-01-13T17:49:51.037Z,18.75
2023-01-13T17:52:53.387Z,18.75
2023-01-13T17:55:55.936Z,18.75
2023-01-13T17:58:58.538Z,18.69
2023-01-13T18:02:00.726Z,18.69
2023-01-13T18:05:02.970Z,18.69
2023-01-13T18:08:05.295Z,18.69
2023-01-13T18:11:07.459Z,18.69
2023-01-13T18:14:10.205Z,18.63
2023-01-13T18:17:12.541Z,18.63
2023-01-13T18:20:37.067Z,18.63
2023-01-13T18:24:14.848Z,18.56
2023-01-13T18:27:19.376Z,18.56
2023-01-13T18:30:21.521Z,18.56
2023-01-13T18:33:23.953Z,18.56
2023-01-13T18:36:26.133Z,18.56
2023-01-13T18:39:28.286Z,18.56
2023-01-13T18:42:49.273Z,18.56
2023-01-13T18:45:51.552Z,18.56
2023-01-13T18:48:53.693Z,18.56
2023-01-13T18:51:56.161Z,18.50
2023-01-13T18:54:58.263Z,18.50
2023-01-13T18:58:00.696Z,18.56
2023-01-13T19:01:05.165Z,18.50
2023-01-13T19:04:10.599Z,18.50
2023-01-13T19:07:16.547Z,18.50
2023-01-13T19:10:18.977Z,18.44
2023-01-13T19:13:21.034Z,18.50
2023-01-13T19:16:23.114Z,18.44
2023-01-13T19:19:25.232Z,18.44
2023-01-13T19:22:30.930Z,18.44
2023-01-13T19:25:33.024Z,18.44
2023-01-13T19:28:36.147Z,18.38
2023-01-13T19:31:38.431Z,18.38
2023-01-13T19:34:40.640Z,18.38
2023-01-13T19:37:43.576Z,18.38
2023-01-13T19:40:55.735Z,18.38
2023-01-13T19:44:16.297Z,18.25
2023-01-13T19:47:18.803Z,18.31
2023-01-13T19:50:21.044Z,18.31
2023-01-13T19:53:23.126Z,18.31
2023-01-13T19:56:26.527Z,18.38
2023-01-13T19:59:32.987Z,18.31
2023-01-13T20:02:36.677Z,18.38
2023-01-13T20:05:38.833Z,18.31
2023-01-13T20:08:41.960Z,18.31
2023-01-13T20:11:44.052Z,18.25
2023-01-13T20:14:50.160Z,18.31
2023-01-13T20:17:52.356Z,18.31
2023-01-13T20:20:54.363Z,18.25
2023-01-13T20:23:56.859Z,18.31
2023-01-13T20:26:59.065Z,18.25
2023-01-13T20:30:01.225Z,18.31
2023-01-13T20:33:03.341Z,18.31
2023-01-13T20:36:06.405Z,18.25
2023-01-13T20:39:08.791Z,18.31
2023-01-13T20:42:29.623Z,18.31
2023-01-13T20:45:31.849Z,18.31
2023-01-13T20:48:33.939Z,18.31
2023-01-13T20:51:36.847Z,18.25
2023-01-13T20:54:40.323Z,18.25
2023-01-13T20:57:42.542Z,18.25
2023-01-13T21:00:44.698Z,18.25
2023-01-13T21:03:46.944Z,18.19
2023-01-13T21:06:49.789Z,18.25
2023-01-13T21:09:51.977Z,18.25
2023-01-13T21:13:12.481Z,18.25
2023-01-13T21:16:15.098Z,18.25
2023-01-13T21:19:18.095Z,18.19
2023-01-13T21:22:20.199Z,18.13
2023-01-13T21:25:22.322Z,18.19
2023-01-13T21:28:24.412Z,18.19
2023-01-13T21:31:27.624Z,18.19
2023-01-13T21:34:29.854Z,18.19
2023-01-13T21:37:31.872Z,18.19
2023-01-13T21:40:33.941Z,18.19
2023-01-13T21:43:56.459Z,18.13
2023-01-13T21:47:17.391Z,18.19
2023-01-13T21:50:22.652Z,18.13
2023-01-13T21:53:24.842Z,18.13
2023-01-13T21:56:27.021Z,18.13
2023-01-13T21:59:29.156Z,18.13
2023-01-13T22:02:32.640Z,18.13
2023-01-13T22:05:35.575Z,18.13
2023-01-13T22:08:37.608Z,18.13
2023-01-13T22:11:39.625Z,18.13
2023-01-13T22:14:41.841Z,18.13
2023-01-13T22:17:45.574Z,18.06
2023-01-13T22:20:49.148Z,18.13
2023-01-13T22:23:51.764Z,18.06
2023-01-13T22:26:54.703Z,18.06
2023-01-13T22:29:58.024Z,18.06
2023-01-13T22:33:00.350Z,18.06
2023-01-13T22:36:02.896Z,18.00
2023-01-13T22:39:04.909Z,18.00
2023-01-13T22:42:07.161Z,18.06
2023-01-13T22:45:12.630Z,18.00
2023-01-13T22:48:14.618Z,18.00
2023-01-13T22:51:18.655Z,18.00
2023-01-13T22:54:20.749Z,18.00
2023-01-13T22:57:23.936Z,17.94
2023-01-13T23:00:26.166Z,17.94
2023-01-13T23:03:28.169Z,17.94
2023-01-13T23:06:32.195Z,17.94
2023-01-13T23:09:34.238Z,17.94
2023-01-13T23:12:36.323Z,17.94
2023-01-13T23:15:38.408Z,17.88
2023-01-13T23:18:47.796Z,17.88
2023-01-13T23:21:49.779Z,17.88
2023-01-13T23:24:51.871Z,17.88
2023-01-13T23:27:54.042Z,17.88
2023-01-13T23:30:56.111Z,17.88
2023-01-13T23:33:58.361Z,17.81
2023-01-13T23:37:00.401Z,17.81
2023-01-13T23:40:02.577Z,17.88
2023-01-13T23:43:04.596Z,17.81
2023-01-13T23:46:13.859Z,17.81
2023-01-13T23:49:16.012Z,17.81
2023-01-13T23:52:18.093Z,17.81
2023-01-13T23:55:20.103Z,17.81
2023-01-13T23:58:22.079Z,17.75
